sensor_id;sensor_type;location;lat;lon;timestamp;temperature;humidity
31527;DHT22;18136;42.236;-73.040;2023-04-25T00:01:55;5.80;99.90
31527;DHT22;18136;42.236;-73.040;2023-04-25T00:04:22;5.70;99.90
31527;DHT22;18136;42.236;-73.040;2023-04-25T00:06:48;5.70;99.90
31527;DHT22;18136;42.236;-73.040;2023-04-25T00:09:15;5.70;99.90
31527;DHT22;18136;42.236;-73.040;2023-04-25T00:11:41;5.60;99.90
31527;DHT22;18136;42.236;-73.040;2023-04-25T00:14:07;5.50;99.90
31527;DHT22;18136;42.236;-73.040;2023-04-25T00:16:33;5.40;99.90
31527;DHT22;18136;42.236;-73.040;2023-04-25T00:19:01;5.40;99.90
31527;DHT22;18136;42.236;-73.040;2023-04-25T00:21:28;5.30;99.90
31527;DHT22;18136;42.236;-73.040;2023-04-25T00:23:57;5.30;99.90
31527;DHT22;18136;42.236;-73.040;2023-04-25T00:26:23;5.20;99.90
31527;DHT22;18136;42.236;-73.040;2023-04-25T00:28:49;5.20;99.90
31527;DHT22;18136;42.236;-73.040;2023-04-25T00:31:15;5.20;99.90
31527;DHT22;18136;42.236;-73.040;2023-04-25T00:33:41;5.10;99.90
31527;DHT22;18136;42.236;-73.040;2023-04-25T00:36:39;5.10;99.90
31527;DHT22;18136;42.236;-73.040;2023-04-25T00:39:08;5.00;99.90
31527;DHT22;18136;42.236;-73.040;2023-04-25T00:41:34;5.00;99.90
31527;DHT22;18136;42.236;-73.040;2023-04-25T00:44:01;4.90;99.90
31527;DHT22;18136;42.236;-73.040;2023-04-25T00:46:28;4.80;99.90
31527;DHT22;18136;42.236;-73.040;2023-04-25T00:48:54;4.80;99.90
31527;DHT22;18136;42.236;-73.040;2023-04-25T00:51:21;4.80;99.90
31527;DHT22;18136;42.236;-73.040;2023-04-25T00:53:49;4.70;99.90
31527;DHT22;18136;42.236;-73.040;2023-04-25T00:56:16;4.70;99.90
31527;DHT22;18136;42.236;-73.040;2023-04-25T00:58:42;4.60;99.90
31527;DHT22;18136;42.236;-73.040;2023-04-25T01:01:10;4.60;99.90
31527;DHT22;18136;42.236;-73.040;2023-04-25T01:03:38;4.50;99.90
31527;DHT22;18136;42.236;-73.040;2023-04-25T01:06:09;4.50;99.90
31527;DHT22;18136;42.236;-73.040;2023-04-25T01:08:37;4.50;99.90
31527;DHT22;18136;42.236;-73.040;2023-04-25T01:11:03;4.50;99.90
31527;DHT22;18136;42.236;-73.040;2023-04-25T01:13:30;4.40;99.90
31527;DHT22;18136;42.236;-73.040;2023-04-25T01:15:58;4.40;99.90
31527;DHT22;18136;42.236;-73.040;2023-04-25T01:18:25;4.30;99.90
31527;DHT22;18136;42.236;-73.040;2023-04-25T01:20:52;4.30;99.90
31527;DHT22;18136;42.236;-73.040;2023-04-25T01:23:20;4.20;99.90
31527;DHT22;18136;42.236;-73.040;2023-04-25T01:25:48;4.20;99.90
31527;DHT22;18136;42.236;-73.040;2023-04-25T01:28:14;4.20;99.90
31527;DHT22;18136;42.236;-73.040;2023-04-25T01:30:41;4.10;99.90
31527;DHT22;18136;42.236;-73.040;2023-04-25T01:33:08;4.10;99.90
31527;DHT22;18136;42.236;-73.040;2023-04-25T01:35:34;4.00;99.90
31527;DHT22;18136;42.236;-73.040;2023-04-25T01:38:01;4.00;99.90
31527;DHT22;18136;42.236;-73.040;2023-04-25T01:40:27;3.90;99.90
31527;DHT22;18136;42.236;-73.040;2023-04-25T01:42:54;3.90;99.90
31527;DHT22;18136;42.236;-73.040;2023-04-25T01:45:20;3.90;99.90
31527;DHT22;18136;42.236;-73.040;2023-04-25T01:47:46;3.80;99.90
31527;DHT22;18136;42.236;-73.040;2023-04-25T01:50:17;3.80;99.90
31527;DHT22;18136;42.236;-73.040;2023-04-25T01:52:43;3.70;99.90
31527;DHT22;18136;42.236;-73.040;2023-04-25T01:55:10;3.70;99.90
31527;DHT22;18136;42.236;-73.040;2023-04-25T01:57:36;3.60;99.90
31527;DHT22;18136;42.236;-73.040;2023-04-25T02:00:04;3.60;99.90
31527;DHT22;18136;42.236;-73.040;2023-04-25T02:02:32;3.60;99.90
31527;DHT22;18136;42.236;-73.040;2023-04-25T02:04:58;3.60;99.90
31527;DHT22;18136;42.236;-73.040;2023-04-25T02:07:25;3.50;99.90
31527;DHT22;18136;42.236;-73.040;2023-04-25T02:09:51;3.50;99.90
31527;DHT22;18136;42.236;-73.040;2023-04-25T02:12:18;3.40;99.90
31527;DHT22;18136;42.236;-73.040;2023-04-25T02:14:44;3.40;99.90
31527;DHT22;18136;42.236;-73.040;2023-04-25T02:17:10;3.30;99.90
31527;DHT22;18136;42.236;-73.040;2023-04-25T02:19:38;3.30;99.90
31527;DHT22;18136;42.236;-73.040;2023-04-25T02:22:04;3.30;99.90
31527;DHT22;18136;42.236;-73.040;2023-04-25T02:24:30;3.30;99.90
31527;DHT22;18136;42.236;-73.040;2023-04-25T02:26:57;3.20;99.90
31527;DHT22;18136;42.236;-73.040;2023-04-25T02:29:23;3.20;99.90
31527;DHT22;18136;42.236;-73.040;2023-04-25T02:31:49;3.20;99.90
31527;DHT22;18136;42.236;-73.040;2023-04-25T02:34:15;3.10;99.90
31527;DHT22;18136;42.236;-73.040;2023-04-25T02:36:41;3.10;99.90
31527;DHT22;18136;42.236;-73.040;2023-04-25T02:39:07;3.10;99.90
31527;DHT22;18136;42.236;-73.040;2023-04-25T02:41:33;3.10;99.90
31527;DHT22;18136;42.236;-73.040;2023-04-25T02:44:00;3.10;99.90
31527;DHT22;18136;42.236;-73.040;2023-04-25T02:46:26;3.00;99.90
31527;DHT22;18136;42.236;-73.040;2023-04-25T02:48:52;3.00;99.90
31527;DHT22;18136;42.236;-73.040;2023-04-25T02:51:18;3.00;99.90
31527;DHT22;18136;42.236;-73.040;2023-04-25T02:53:44;2.90;99.90
31527;DHT22;18136;42.236;-73.040;2023-04-25T02:56:10;2.90;99.90
31527;DHT22;18136;42.236;-73.040;2023-04-25T02:58:36;2.80;99.90
31527;DHT22;18136;42.236;-73.040;2023-04-25T03:01:02;2.90;99.90
31527;DHT22;18136;42.236;-73.040;2023-04-25T03:03:28;2.80;99.90
31527;DHT22;18136;42.236;-73.040;2023-04-25T03:05:54;2.90;99.90
31527;DHT22;18136;42.236;-73.040;2023-04-25T03:08:20;2.80;99.90
31527;DHT22;18136;42.236;-73.040;2023-04-25T03:10:47;2.70;99.90
31527;DHT22;18136;42.236;-73.040;2023-04-25T03:13:13;2.70;99.90
31527;DHT22;18136;42.236;-73.040;2023-04-25T03:15:39;2.70;99.90
31527;DHT22;18136;42.236;-73.040;2023-04-25T03:18:05;2.70;99.90
31527;DHT22;18136;42.236;-73.040;2023-04-25T03:20:31;2.70;99.90
31527;DHT22;18136;42.236;-73.040;2023-04-25T03:22:57;2.70;99.90
31527;DHT22;18136;42.236;-73.040;2023-04-25T03:25:23;2.70;99.90
31527;DHT22;18136;42.236;-73.040;2023-04-25T03:27:49;2.60;99.90
31527;DHT22;18136;42.236;-73.040;2023-04-25T03:30:15;2.60;99.90
31527;DHT22;18136;42.236;-73.040;2023-04-25T03:32:41;2.60;99.90
31527;DHT22;18136;42.236;-73.040;2023-04-25T03:35:08;2.60;99.90
31527;DHT22;18136;42.236;-73.040;2023-04-25T03:37:34;2.60;99.90
31527;DHT22;18136;42.236;-73.040;2023-04-25T03:40:00;2.50;99.90
31527;DHT22;18136;42.236;-73.040;2023-04-25T03:42:26;2.50;99.90
31527;DHT22;18136;42.236;-73.040;2023-04-25T03:44:52;2.50;99.90
31527;DHT22;18136;42.236;-73.040;2023-04-25T03:47:18;2.50;99.90
31527;DHT22;18136;42.236;-73.040;2023-04-25T03:49:44;2.50;99.90
31527;DHT22;18136;42.236;-73.040;2023-04-25T03:52:10;2.50;99.90
31527;DHT22;18136;42.236;-73.040;2023-04-25T03:54:36;2.40;99.90
31527;DHT22;18136;42.236;-73.040;2023-04-25T03:57:02;2.40;99.90
31527;DHT22;18136;42.236;-73.040;2023-04-25T03:59:28;2.40;99.90
31527;DHT22;18136;42.236;-73.040;2023-04-25T04:01:55;2.40;99.90
31527;DHT22;18136;42.236;-73.040;2023-04-25T04:04:21;2.30;99.90
31527;DHT22;18136;42.236;-73.040;2023-04-25T04:06:47;2.30;99.90
31527;DHT22;18136;42.236;-73.040;2023-04-25T04:09:13;2.20;99.90
31527;DHT22;18136;42.236;-73.040;2023-04-25T04:11:39;2.20;99.90
31527;DHT22;18136;42.236;-73.040;2023-04-25T04:14:06;2.20;99.90
31527;DHT22;18136;42.236;-73.040;2023-04-25T04:16:32;2.20;99.90
31527;DHT22;18136;42.236;-73.040;2023-04-25T04:18:58;2.20;99.90
31527;DHT22;18136;42.236;-73.040;2023-04-25T04:21:24;2.10;99.90
31527;DHT22;18136;42.236;-73.040;2023-04-25T04:23:53;2.10;99.90
31527;DHT22;18136;42.236;-73.040;2023-04-25T04:26:20;2.10;99.90
31527;DHT22;18136;42.236;-73.040;2023-04-25T04:28:49;2.00;99.90
31527;DHT22;18136;42.236;-73.040;2023-04-25T04:31:20;2.00;99.90
31527;DHT22;18136;42.236;-73.040;2023-04-25T04:33:47;2.00;99.90
31527;DHT22;18136;42.236;-73.040;2023-04-25T04:36:13;2.00;99.90
31527;DHT22;18136;42.236;-73.040;2023-04-25T04:38:39;2.00;99.90
31527;DHT22;18136;42.236;-73.040;2023-04-25T04:41:08;2.00;99.90
31527;DHT22;18136;42.236;-73.040;2023-04-25T04:43:34;2.00;99.90
31527;DHT22;18136;42.236;-73.040;2023-04-25T04:46:01;2.00;99.90
31527;DHT22;18136;42.236;-73.040;2023-04-25T04:48:27;1.90;99.90
31527;DHT22;18136;42.236;-73.040;2023-04-25T04:50:53;1.90;99.90
31527;DHT22;18136;42.236;-73.040;2023-04-25T04:53:19;1.90;99.90
31527;DHT22;18136;42.236;-73.040;2023-04-25T04:55:45;1.90;99.90
31527;DHT22;18136;42.236;-73.040;2023-04-25T04:58:11;1.90;99.90
31527;DHT22;18136;42.236;-73.040;2023-04-25T05:00:38;1.90;99.90
31527;DHT22;18136;42.236;-73.040;2023-04-25T05:03:04;1.80;99.90
31527;DHT22;18136;42.236;-73.040;2023-04-25T05:05:31;1.80;99.90
31527;DHT22;18136;42.236;-73.040;2023-04-25T05:07:57;1.80;99.90
31527;DHT22;18136;42.236;-73.040;2023-04-25T05:10:23;1.80;99.90
31527;DHT22;18136;42.236;-73.040;2023-04-25T05:12:49;1.80;99.90
31527;DHT22;18136;42.236;-73.040;2023-04-25T05:15:15;1.70;99.90
31527;DHT22;18136;42.236;-73.040;2023-04-25T05:17:41;1.70;99.90
31527;DHT22;18136;42.236;-73.040;2023-04-25T05:20:08;1.70;99.90
31527;DHT22;18136;42.236;-73.040;2023-04-25T05:22:37;1.70;99.90
31527;DHT22;18136;42.236;-73.040;2023-04-25T05:25:03;1.60;99.90
31527;DHT22;18136;42.236;-73.040;2023-04-25T05:27:30;1.60;99.90
31527;DHT22;18136;42.236;-73.040;2023-04-25T05:29:56;1.60;99.90
31527;DHT22;18136;42.236;-73.040;2023-04-25T05:32:22;1.60;99.90
31527;DHT22;18136;42.236;-73.040;2023-04-25T05:34:48;1.60;99.90
31527;DHT22;18136;42.236;-73.040;2023-04-25T05:37:14;1.60;99.90
31527;DHT22;18136;42.236;-73.040;2023-04-25T05:39:40;1.60;99.90
31527;DHT22;18136;42.236;-73.040;2023-04-25T05:42:06;1.60;99.90
31527;DHT22;18136;42.236;-73.040;2023-04-25T05:44:32;1.60;99.90
31527;DHT22;18136;42.236;-73.040;2023-04-25T05:46:58;1.50;99.90
31527;DHT22;18136;42.236;-73.040;2023-04-25T05:49:24;1.50;99.90
31527;DHT22;18136;42.236;-73.040;2023-04-25T05:51:50;1.50;99.90
31527;DHT22;18136;42.236;-73.040;2023-04-25T05:54:16;1.50;99.90
31527;DHT22;18136;42.236;-73.040;2023-04-25T05:56:43;1.40;99.90
31527;DHT22;18136;42.236;-73.040;2023-04-25T05:59:09;1.40;99.90
31527;DHT22;18136;42.236;-73.040;2023-04-25T06:01:35;1.40;99.90
31527;DHT22;18136;42.236;-73.040;2023-04-25T06:06:29;1.40;99.90
31527;DHT22;18136;42.236;-73.040;2023-04-25T06:08:55;1.40;99.90
31527;DHT22;18136;42.236;-73.040;2023-04-25T06:11:21;1.30;99.90
31527;DHT22;18136;42.236;-73.040;2023-04-25T06:13:47;1.30;99.90
31527;DHT22;18136;42.236;-73.040;2023-04-25T06:16:14;1.30;99.90
31527;DHT22;18136;42.236;-73.040;2023-04-25T06:18:40;1.30;99.90
31527;DHT22;18136;42.236;-73.040;2023-04-25T06:21:06;1.30;99.90
31527;DHT22;18136;42.236;-73.040;2023-04-25T06:23:32;1.30;99.90
31527;DHT22;18136;42.236;-73.040;2023-04-25T06:25:58;1.30;99.90
31527;DHT22;18136;42.236;-73.040;2023-04-25T06:28:24;1.30;99.90
31527;DHT22;18136;42.236;-73.040;2023-04-25T06:30:51;1.30;99.90
31527;DHT22;18136;42.236;-73.040;2023-04-25T06:33:17;1.30;99.90
31527;DHT22;18136;42.236;-73.040;2023-04-25T06:35:43;1.30;99.90
31527;DHT22;18136;42.236;-73.040;2023-04-25T06:38:09;1.30;99.90
31527;DHT22;18136;42.236;-73.040;2023-04-25T06:40:35;1.30;99.90
31527;DHT22;18136;42.236;-73.040;2023-04-25T06:43:01;1.30;99.90
31527;DHT22;18136;42.236;-73.040;2023-04-25T06:45:27;1.30;99.90
31527;DHT22;18136;42.236;-73.040;2023-04-25T06:47:53;1.30;99.90
31527;DHT22;18136;42.236;-73.040;2023-04-25T06:50:20;1.20;99.90
31527;DHT22;18136;42.236;-73.040;2023-04-25T06:52:46;1.20;99.90
31527;DHT22;18136;42.236;-73.040;2023-04-25T06:55:12;1.20;99.90
31527;DHT22;18136;42.236;-73.040;2023-04-25T06:57:41;1.20;99.90
31527;DHT22;18136;42.236;-73.040;2023-04-25T07:00:08;1.20;99.90
31527;DHT22;18136;42.236;-73.040;2023-04-25T07:02:35;1.20;99.90
31527;DHT22;18136;42.236;-73.040;2023-04-25T07:05:02;1.20;99.90
31527;DHT22;18136;42.236;-73.040;2023-04-25T07:07:30;1.20;99.90
31527;DHT22;18136;42.236;-73.040;2023-04-25T07:09:56;1.10;99.90
31527;DHT22;18136;42.236;-73.040;2023-04-25T07:12:22;1.10;99.90
31527;DHT22;18136;42.236;-73.040;2023-04-25T07:14:48;1.10;99.90
31527;DHT22;18136;42.236;-73.040;2023-04-25T07:17:14;1.10;99.90
31527;DHT22;18136;42.236;-73.040;2023-04-25T07:19:41;1.10;99.90
31527;DHT22;18136;42.236;-73.040;2023-04-25T07:22:07;1.10;99.90
31527;DHT22;18136;42.236;-73.040;2023-04-25T07:24:33;1.00;99.90
31527;DHT22;18136;42.236;-73.040;2023-04-25T07:26:59;1.10;99.90
31527;DHT22;18136;42.236;-73.040;2023-04-25T07:29:28;1.10;99.90
31527;DHT22;18136;42.236;-73.040;2023-04-25T07:31:55;1.10;99.90
31527;DHT22;18136;42.236;-73.040;2023-04-25T07:34:22;1.10;99.90
31527;DHT22;18136;42.236;-73.040;2023-04-25T07:36:49;1.10;99.90
31527;DHT22;18136;42.236;-73.040;2023-04-25T07:39:17;1.10;99.90
31527;DHT22;18136;42.236;-73.040;2023-04-25T07:41:43;1.20;99.90
31527;DHT22;18136;42.236;-73.040;2023-04-25T07:44:09;1.20;99.90
31527;DHT22;18136;42.236;-73.040;2023-04-25T07:46:36;1.20;99.90
31527;DHT22;18136;42.236;-73.040;2023-04-25T07:49:03;1.20;99.90
31527;DHT22;18136;42.236;-73.040;2023-04-25T07:51:29;1.20;99.90
31527;DHT22;18136;42.236;-73.040;2023-04-25T07:53:55;1.20;99.90
31527;DHT22;18136;42.236;-73.040;2023-04-25T07:56:21;1.20;99.90
31527;DHT22;18136;42.236;-73.040;2023-04-25T07:58:47;1.20;99.90
31527;DHT22;18136;42.236;-73.040;2023-04-25T08:01:13;1.20;99.90
31527;DHT22;18136;42.236;-73.040;2023-04-25T08:03:39;1.20;99.90
31527;DHT22;18136;42.236;-73.040;2023-04-25T08:06:06;1.20;99.90
31527;DHT22;18136;42.236;-73.040;2023-04-25T08:08:33;1.20;99.90
31527;DHT22;18136;42.236;-73.040;2023-04-25T08:10:59;1.20;99.90
31527;DHT22;18136;42.236;-73.040;2023-04-25T08:13:25;1.20;99.90
31527;DHT22;18136;42.236;-73.040;2023-04-25T08:15:51;1.20;99.90
31527;DHT22;18136;42.236;-73.040;2023-04-25T08:18:17;1.20;99.90
31527;DHT22;18136;42.236;-73.040;2023-04-25T08:20:43;1.20;99.90
31527;DHT22;18136;42.236;-73.040;2023-04-25T08:23:10;1.20;99.90
31527;DHT22;18136;42.236;-73.040;2023-04-25T08:25:36;1.20;99.90
31527;DHT22;18136;42.236;-73.040;2023-04-25T08:28:03;1.20;99.90
31527;DHT22;18136;42.236;-73.040;2023-04-25T08:30:29;1.20;99.90
31527;DHT22;18136;42.236;-73.040;2023-04-25T08:32:55;1.20;99.90
31527;DHT22;18136;42.236;-73.040;2023-04-25T08:35:23;1.20;99.90
31527;DHT22;18136;42.236;-73.040;2023-04-25T08:37:49;1.20;99.90
31527;DHT22;18136;42.236;-73.040;2023-04-25T08:40:15;1.30;99.90
31527;DHT22;18136;42.236;-73.040;2023-04-25T08:42:42;1.30;99.90
31527;DHT22;18136;42.236;-73.040;2023-04-25T08:45:09;1.30;99.90
31527;DHT22;18136;42.236;-73.040;2023-04-25T08:47:38;1.30;99.90
31527;DHT22;18136;42.236;-73.040;2023-04-25T08:50:07;1.30;99.90
31527;DHT22;18136;42.236;-73.040;2023-04-25T08:52:37;1.30;99.90
31527;DHT22;18136;42.236;-73.040;2023-04-25T08:55:07;1.30;99.90
31527;DHT22;18136;42.236;-73.040;2023-04-25T08:57:34;1.30;99.90
31527;DHT22;18136;42.236;-73.040;2023-04-25T09:00:01;1.30;99.90
31527;DHT22;18136;42.236;-73.040;2023-04-25T09:02:30;1.30;99.90
31527;DHT22;18136;42.236;-73.040;2023-04-25T09:04:57;1.30;99.90
31527;DHT22;18136;42.236;-73.040;2023-04-25T09:07:23;1.20;99.90
31527;DHT22;18136;42.236;-73.040;2023-04-25T09:09:51;1.20;99.90
31527;DHT22;18136;42.236;-73.040;2023-04-25T09:12:21;1.20;99.90
31527;DHT22;18136;42.236;-73.040;2023-04-25T09:15:07;1.20;99.90
31527;DHT22;18136;42.236;-73.040;2023-04-25T09:17:34;1.10;99.90
31527;DHT22;18136;42.236;-73.040;2023-04-25T09:20:07;1.10;99.90
31527;DHT22;18136;42.236;-73.040;2023-04-25T09:22:35;1.10;99.90
31527;DHT22;18136;42.236;-73.040;2023-04-25T09:25:03;1.10;99.90
31527;DHT22;18136;42.236;-73.040;2023-04-25T09:27:30;1.10;99.90
31527;DHT22;18136;42.236;-73.040;2023-04-25T09:29:58;1.10;99.90
31527;DHT22;18136;42.236;-73.040;2023-04-25T09:32:27;1.00;99.90
31527;DHT22;18136;42.236;-73.040;2023-04-25T09:34:55;1.10;99.90
31527;DHT22;18136;42.236;-73.040;2023-04-25T09:37:29;1.10;99.90
31527;DHT22;18136;42.236;-73.040;2023-04-25T09:40:00;1.10;99.90
31527;DHT22;18136;42.236;-73.040;2023-04-25T09:42:28;1.00;99.90
31527;DHT22;18136;42.236;-73.040;2023-04-25T09:44:58;1.00;99.90
31527;DHT22;18136;42.236;-73.040;2023-04-25T09:47:26;1.00;99.90
31527;DHT22;18136;42.236;-73.040;2023-04-25T09:49:53;0.90;99.90
31527;DHT22;18136;42.236;-73.040;2023-04-25T09:52:24;1.00;99.90
31527;DHT22;18136;42.236;-73.040;2023-04-25T09:54:51;0.90;99.90
31527;DHT22;18136;42.236;-73.040;2023-04-25T09:57:20;0.90;99.90
31527;DHT22;18136;42.236;-73.040;2023-04-25T09:59:48;0.90;99.90
31527;DHT22;18136;42.236;-73.040;2023-04-25T10:02:17;0.90;99.90
31527;DHT22;18136;42.236;-73.040;2023-04-25T10:04:49;0.80;99.90
31527;DHT22;18136;42.236;-73.040;2023-04-25T10:07:18;0.80;99.90
31527;DHT22;18136;42.236;-73.040;2023-04-25T10:09:48;0.80;99.90
31527;DHT22;18136;42.236;-73.040;2023-04-25T10:12:16;0.80;99.90
31527;DHT22;18136;42.236;-73.040;2023-04-25T10:14:43;0.80;99.90
31527;DHT22;18136;42.236;-73.040;2023-04-25T10:17:11;0.70;99.90
31527;DHT22;18136;42.236;-73.040;2023-04-25T10:19:40;0.70;99.90
31527;DHT22;18136;42.236;-73.040;2023-04-25T10:22:17;0.70;99.90
31527;DHT22;18136;42.236;-73.040;2023-04-25T10:24:44;0.70;99.90
31527;DHT22;18136;42.236;-73.040;2023-04-25T10:27:12;0.70;99.90
31527;DHT22;18136;42.236;-73.040;2023-04-25T10:29:39;0.70;99.90
31527;DHT22;18136;42.236;-73.040;2023-04-25T10:32:08;0.70;99.90
31527;DHT22;18136;42.236;-73.040;2023-04-25T10:34:44;0.60;99.90
31527;DHT22;18136;42.236;-73.040;2023-04-25T10:37:14;0.60;99.90
31527;DHT22;18136;42.236;-73.040;2023-04-25T10:39:41;0.70;99.90
31527;DHT22;18136;42.236;-73.040;2023-04-25T10:42:08;0.70;99.90
31527;DHT22;18136;42.236;-73.040;2023-04-25T10:44:35;0.70;99.90
31527;DHT22;18136;42.236;-73.040;2023-04-25T10:47:02;0.70;99.90
31527;DHT22;18136;42.236;-73.040;2023-04-25T10:49:41;0.70;99.90
31527;DHT22;18136;42.236;-73.040;2023-04-25T10:52:15;0.70;99.90
31527;DHT22;18136;42.236;-73.040;2023-04-25T10:54:52;0.70;99.90
31527;DHT22;18136;42.236;-73.040;2023-04-25T10:57:36;0.70;99.90
31527;DHT22;18136;42.236;-73.040;2023-04-25T11:00:08;0.70;99.90
31527;DHT22;18136;42.236;-73.040;2023-04-25T11:02:44;0.80;99.90
31527;DHT22;18136;42.236;-73.040;2023-04-25T11:07:53;0.90;99.90
31527;DHT22;18136;42.236;-73.040;2023-04-25T11:10:28;0.90;99.90
31527;DHT22;18136;42.236;-73.040;2023-04-25T11:12:55;0.90;99.90
31527;DHT22;18136;42.236;-73.040;2023-04-25T11:15:22;1.00;99.90
31527;DHT22;18136;42.236;-73.040;2023-04-25T11:17:48;1.00;99.90
31527;DHT22;18136;42.236;-73.040;2023-04-25T11:20:14;1.10;99.90
31527;DHT22;18136;42.236;-73.040;2023-04-25T11:22:42;1.10;99.90
31527;DHT22;18136;42.236;-73.040;2023-04-25T11:25:10;1.20;99.90
31527;DHT22;18136;42.236;-73.040;2023-04-25T11:27:56;1.20;99.90
31527;DHT22;18136;42.236;-73.040;2023-04-25T11:30:24;1.30;99.90
31527;DHT22;18136;42.236;-73.040;2023-04-25T11:32:51;1.40;99.90
31527;DHT22;18136;42.236;-73.040;2023-04-25T11:35:18;1.40;99.90
31527;DHT22;18136;42.236;-73.040;2023-04-25T11:37:45;1.50;99.90
31527;DHT22;18136;42.236;-73.040;2023-04-25T11:40:11;1.60;99.90
31527;DHT22;18136;42.236;-73.040;2023-04-25T11:42:39;1.60;99.90
31527;DHT22;18136;42.236;-73.040;2023-04-25T11:45:06;1.70;99.90
31527;DHT22;18136;42.236;-73.040;2023-04-25T11:47:33;1.80;99.90
31527;DHT22;18136;42.236;-73.040;2023-04-25T11:50:00;1.90;99.90
31527;DHT22;18136;42.236;-73.040;2023-04-25T11:55:21;2.00;99.90
31527;DHT22;18136;42.236;-73.040;2023-04-25T11:57:50;2.10;99.90
31527;DHT22;18136;42.236;-73.040;2023-04-25T12:00:18;2.20;99.90
31527;DHT22;18136;42.236;-73.040;2023-04-25T12:02:52;2.20;99.90
31527;DHT22;18136;42.236;-73.040;2023-04-25T12:05:19;2.30;99.90
31527;DHT22;18136;42.236;-73.040;2023-04-25T12:07:46;2.40;99.90
31527;DHT22;18136;42.236;-73.040;2023-04-25T12:10:14;2.50;99.90
31527;DHT22;18136;42.236;-73.040;2023-04-25T12:12:45;2.50;99.90
31527;DHT22;18136;42.236;-73.040;2023-04-25T12:15:23;2.70;99.90
31527;DHT22;18136;42.236;-73.040;2023-04-25T12:17:52;2.80;99.90
31527;DHT22;18136;42.236;-73.040;2023-04-25T12:20:23;2.80;99.90
31527;DHT22;18136;42.236;-73.040;2023-04-25T12:22:50;2.90;99.90
31527;DHT22;18136;42.236;-73.040;2023-04-25T12:25:43;3.00;99.90
31527;DHT22;18136;42.236;-73.040;2023-04-25T12:28:17;3.20;99.90
31527;DHT22;18136;42.236;-73.040;2023-04-25T12:31:00;3.20;99.90
31527;DHT22;18136;42.236;-73.040;2023-04-25T12:33:28;3.40;99.90
31527;DHT22;18136;42.236;-73.040;2023-04-25T12:35:55;3.50;99.90
31527;DHT22;18136;42.236;-73.040;2023-04-25T12:38:23;3.60;99.90
31527;DHT22;18136;42.236;-73.040;2023-04-25T12:40:49;3.70;99.90
31527;DHT22;18136;42.236;-73.040;2023-04-25T12:43:15;3.90;99.90
31527;DHT22;18136;42.236;-73.040;2023-04-25T12:45:41;4.00;99.90
31527;DHT22;18136;42.236;-73.040;2023-04-25T12:48:07;4.20;99.90
31527;DHT22;18136;42.236;-73.040;2023-04-25T12:50:33;4.30;99.90
31527;DHT22;18136;42.236;-73.040;2023-04-25T12:52:59;4.50;99.90
31527;DHT22;18136;42.236;-73.040;2023-04-25T12:55:25;4.60;99.90
31527;DHT22;18136;42.236;-73.040;2023-04-25T12:57:51;4.80;99.90
31527;DHT22;18136;42.236;-73.040;2023-04-25T13:00:18;5.00;99.90
31527;DHT22;18136;42.236;-73.040;2023-04-25T13:02:45;5.10;99.90
31527;DHT22;18136;42.236;-73.040;2023-04-25T13:05:14;5.20;99.90
31527;DHT22;18136;42.236;-73.040;2023-04-25T13:07:40;5.30;99.90
31527;DHT22;18136;42.236;-73.040;2023-04-25T13:10:07;5.30;99.90
31527;DHT22;18136;42.236;-73.040;2023-04-25T13:12:33;5.50;99.90
31527;DHT22;18136;42.236;-73.040;2023-04-25T13:14:59;5.80;99.90
31527;DHT22;18136;42.236;-73.040;2023-04-25T13:17:25;6.00;99.90
31527;DHT22;18136;42.236;-73.040;2023-04-25T13:19:51;5.90;99.90
31527;DHT22;18136;42.236;-73.040;2023-04-25T13:22:17;5.80;99.90
31527;DHT22;18136;42.236;-73.040;2023-04-25T13:24:46;5.70;99.90
31527;DHT22;18136;42.236;-73.040;2023-04-25T13:27:12;5.70;99.90
31527;DHT22;18136;42.236;-73.040;2023-04-25T13:29:39;5.60;99.90
31527;DHT22;18136;42.236;-73.040;2023-04-25T13:32:07;5.60;99.90
31527;DHT22;18136;42.236;-73.040;2023-04-25T13:34:33;5.60;99.90
31527;DHT22;18136;42.236;-73.040;2023-04-25T13:36:59;5.90;99.90
31527;DHT22;18136;42.236;-73.040;2023-04-25T13:39:26;6.20;99.90
31527;DHT22;18136;42.236;-73.040;2023-04-25T13:41:52;6.50;99.90
31527;DHT22;18136;42.236;-73.040;2023-04-25T13:44:18;6.80;99.90
31527;DHT22;18136;42.236;-73.040;2023-04-25T13:46:44;7.00;99.90
31527;DHT22;18136;42.236;-73.040;2023-04-25T13:49:10;7.20;99.90
31527;DHT22;18136;42.236;-73.040;2023-04-25T13:51:36;7.30;99.90
31527;DHT22;18136;42.236;-73.040;2023-04-25T13:54:03;7.50;99.90
31527;DHT22;18136;42.236;-73.040;2023-04-25T13:56:29;7.70;99.90
31527;DHT22;18136;42.236;-73.040;2023-04-25T13:58:55;7.50;99.90
31527;DHT22;18136;42.236;-73.040;2023-04-25T14:01:22;7.40;99.90
31527;DHT22;18136;42.236;-73.040;2023-04-25T14:03:48;7.30;99.90
31527;DHT22;18136;42.236;-73.040;2023-04-25T14:06:14;7.20;99.90
31527;DHT22;18136;42.236;-73.040;2023-04-25T14:08:46;7.10;99.90
31527;DHT22;18136;42.236;-73.040;2023-04-25T14:11:12;7.10;99.90
31527;DHT22;18136;42.236;-73.040;2023-04-25T14:13:38;7.10;99.90
31527;DHT22;18136;42.236;-73.040;2023-04-25T14:16:05;7.40;99.90
31527;DHT22;18136;42.236;-73.040;2023-04-25T14:18:31;7.80;99.90
31527;DHT22;18136;42.236;-73.040;2023-04-25T14:20:57;8.00;99.90
31527;DHT22;18136;42.236;-73.040;2023-04-25T14:23:23;8.30;99.90
31527;DHT22;18136;42.236;-73.040;2023-04-25T14:25:49;8.40;99.90
31527;DHT22;18136;42.236;-73.040;2023-04-25T14:28:16;8.60;99.90
31527;DHT22;18136;42.236;-73.040;2023-04-25T14:30:42;8.50;99.90
31527;DHT22;18136;42.236;-73.040;2023-04-25T14:33:08;8.50;99.90
31527;DHT22;18136;42.236;-73.040;2023-04-25T14:35:35;8.40;99.90
31527;DHT22;18136;42.236;-73.040;2023-04-25T14:38:01;8.50;99.90
31527;DHT22;18136;42.236;-73.040;2023-04-25T14:40:27;8.70;99.90
31527;DHT22;18136;42.236;-73.040;2023-04-25T14:42:53;8.90;99.90
31527;DHT22;18136;42.236;-73.040;2023-04-25T14:45:19;8.80;99.90
31527;DHT22;18136;42.236;-73.040;2023-04-25T14:47:46;8.60;99.90
31527;DHT22;18136;42.236;-73.040;2023-04-25T14:50:12;8.20;99.90
31527;DHT22;18136;42.236;-73.040;2023-04-25T14:52:38;8.10;99.90
31527;DHT22;18136;42.236;-73.040;2023-04-25T14:55:04;8.00;99.90
31527;DHT22;18136;42.236;-73.040;2023-04-25T14:57:34;8.00;99.90
31527;DHT22;18136;42.236;-73.040;2023-04-25T15:00:01;8.10;99.90
31527;DHT22;18136;42.236;-73.040;2023-04-25T15:02:27;8.10;99.90
31527;DHT22;18136;42.236;-73.040;2023-04-25T15:04:54;8.00;99.90
31527;DHT22;18136;42.236;-73.040;2023-04-25T15:07:21;8.00;99.90
31527;DHT22;18136;42.236;-73.040;2023-04-25T15:09:48;8.10;99.90
31527;DHT22;18136;42.236;-73.040;2023-04-25T15:12:14;8.40;99.90
31527;DHT22;18136;42.236;-73.040;2023-04-25T15:14:40;8.60;99.90
31527;DHT22;18136;42.236;-73.040;2023-04-25T15:17:06;8.70;99.90
31527;DHT22;18136;42.236;-73.040;2023-04-25T15:19:32;8.70;99.90
31527;DHT22;18136;42.236;-73.040;2023-04-25T15:21:58;8.60;99.90
31527;DHT22;18136;42.236;-73.040;2023-04-25T15:24:29;8.50;99.90